sensor_id;sensor_type;location;lat;lon;timestamp;P1;durP1;ratioP1;P2;durP2;ratioP2
13228;SDS011;6680;53.220;10.402;2023-07-16T00:00:14;2.43;;;1.77;;
13228;SDS011;6680;53.220;10.402;2023-07-16T00:02:43;1.90;;;1.80;;
13228;SDS011;6680;53.220;10.402;2023-07-16T00:05:10;2.13;;;1.93;;
13228;SDS011;6680;53.220;10.402;2023-07-16T00:07:36;1.50;;;1.40;;
13228;SDS011;6680;53.220;10.402;2023-07-16T00:10:05;1.60;;;1.50;;
13228;SDS011;6680;53.220;10.402;2023-07-16T00:12:32;2.10;;;1.80;;
13228;SDS011;6680;53.220;10.402;2023-07-16T00:14:58;2.07;;;1.90;;
13228;SDS011;6680;53.220;10.402;2023-07-16T00:17:25;2.07;;;1.57;;
13228;SDS011;6680;53.220;10.402;2023-07-16T00:19:52;2.20;;;2.00;;
13228;SDS011;6680;53.220;10.402;2023-07-16T00:22:18;1.70;;;1.60;;
13228;SDS011;6680;53.220;10.402;2023-07-16T00:24:45;1.87;;;1.47;;
13228;SDS011;6680;53.220;10.402;2023-07-16T00:27:13;1.63;;;1.53;;
13228;SDS011;6680;53.220;10.402;2023-07-16T00:29:40;2.03;;;1.93;;
13228;SDS011;6680;53.220;10.402;2023-07-16T00:32:06;2.27;;;1.60;;
13228;SDS011;6680;53.220;10.402;2023-07-16T00:34:33;2.60;;;1.93;;
13228;SDS011;6680;53.220;10.402;2023-07-16T00:37:00;2.13;;;1.93;;
13228;SDS011;6680;53.220;10.402;2023-07-16T00:39:28;1.70;;;1.60;;
13228;SDS011;6680;53.220;10.402;2023-07-16T00:41:54;1.90;;;1.80;;
13228;SDS011;6680;53.220;10.402;2023-07-16T00:44:23;1.90;;;1.80;;
13228;SDS011;6680;53.220;10.402;2023-07-16T00:46:49;1.80;;;1.70;;
13228;SDS011;6680;53.220;10.402;2023-07-16T00:49:16;2.70;;;1.70;;
13228;SDS011;6680;53.220;10.402;2023-07-16T00:51:43;2.30;;;2.10;;
13228;SDS011;6680;53.220;10.402;2023-07-16T00:54:10;2.30;;;1.70;;
13228;SDS011;6680;53.220;10.402;2023-07-16T00:56:37;3.57;;;2.00;;
13228;SDS011;6680;53.220;10.402;2023-07-16T00:59:04;1.50;;;1.40;;
13228;SDS011;6680;53.220;10.402;2023-07-16T01:01:32;1.63;;;1.50;;
13228;SDS011;6680;53.220;10.402;2023-07-16T01:03:59;1.60;;;1.50;;
13228;SDS011;6680;53.220;10.402;2023-07-16T01:06:27;1.77;;;1.40;;
13228;SDS011;6680;53.220;10.402;2023-07-16T01:09:01;2.33;;;1.90;;
13228;SDS011;6680;53.220;10.402;2023-07-16T01:11:29;2.40;;;1.80;;
13228;SDS011;6680;53.220;10.402;2023-07-16T01:13:56;2.10;;;1.60;;
13228;SDS011;6680;53.220;10.402;2023-07-16T01:16:24;2.37;;;1.70;;
13228;SDS011;6680;53.220;10.402;2023-07-16T01:18:52;1.53;;;1.43;;
13228;SDS011;6680;53.220;10.402;2023-07-16T01:21:19;2.27;;;1.57;;
13228;SDS011;6680;53.220;10.402;2023-07-16T01:23:50;1.70;;;1.60;;
13228;SDS011;6680;53.220;10.402;2023-07-16T01:26:39;2.07;;;1.87;;
13228;SDS011;6680;53.220;10.402;2023-07-16T01:29:32;1.63;;;1.50;;
13228;SDS011;6680;53.220;10.402;2023-07-16T01:32:01;2.00;;;1.90;;
13228;SDS011;6680;53.220;10.402;2023-07-16T01:34:30;1.60;;;1.50;;
13228;SDS011;6680;53.220;10.402;2023-07-16T01:36:59;1.87;;;1.77;;
13228;SDS011;6680;53.220;10.402;2023-07-16T01:39:26;2.80;;;2.00;;
13228;SDS011;6680;53.220;10.402;2023-07-16T01:41:54;1.63;;;1.53;;
13228;SDS011;6680;53.220;10.402;2023-07-16T01:44:20;1.90;;;1.80;;
13228;SDS011;6680;53.220;10.402;2023-07-16T01:46:49;2.00;;;1.87;;
13228;SDS011;6680;53.220;10.402;2023-07-16T01:49:25;1.60;;;1.50;;
13228;SDS011;6680;53.220;10.402;2023-07-16T01:51:52;1.90;;;1.77;;
13228;SDS011;6680;53.220;10.402;2023-07-16T01:54:20;1.60;;;1.50;;
13228;SDS011;6680;53.220;10.402;2023-07-16T01:56:46;1.53;;;1.43;;
13228;SDS011;6680;53.220;10.402;2023-07-16T01:59:14;2.20;;;1.90;;
13228;SDS011;6680;53.220;10.402;2023-07-16T02:01:40;2.37;;;1.93;;
13228;SDS011;6680;53.220;10.402;2023-07-16T02:04:08;2.33;;;1.87;;
13228;SDS011;6680;53.220;10.402;2023-07-16T02:06:35;2.47;;;1.60;;
13228;SDS011;6680;53.220;10.402;2023-07-16T02:09:02;1.90;;;1.80;;
13228;SDS011;6680;53.220;10.402;2023-07-16T02:11:29;2.60;;;1.97;;
13228;SDS011;6680;53.220;10.402;2023-07-16T02:13:55;2.17;;;1.97;;
13228;SDS011;6680;53.220;10.402;2023-07-16T02:16:22;1.70;;;1.60;;
13228;SDS011;6680;53.220;10.402;2023-07-16T02:18:49;3.53;;;1.97;;
13228;SDS011;6680;53.220;10.402;2023-07-16T02:21:17;2.30;;;2.10;;
13228;SDS011;6680;53.220;10.402;2023-07-16T02:23:43;2.17;;;1.80;;
13228;SDS011;6680;53.220;10.402;2023-07-16T02:26:10;2.10;;;1.90;;
13228;SDS011;6680;53.220;10.402;2023-07-16T02:28:37;1.93;;;1.83;;
13228;SDS011;6680;53.220;10.402;2023-07-16T02:31:03;2.30;;;1.70;;
13228;SDS011;6680;53.220;10.402;2023-07-16T02:33:30;2.00;;;1.83;;
13228;SDS011;6680;53.220;10.402;2023-07-16T02:35:57;2.17;;;1.97;;
13228;SDS011;6680;53.220;10.402;2023-07-16T02:38:25;1.77;;;1.60;;
13228;SDS011;6680;53.220;10.402;2023-07-16T02:40:52;2.00;;;1.80;;
13228;SDS011;6680;53.220;10.402;2023-07-16T02:43:19;3.70;;;2.20;;
13228;SDS011;6680;53.220;10.402;2023-07-16T02:45:46;2.73;;;1.97;;
13228;SDS011;6680;53.220;10.402;2023-07-16T02:48:12;2.00;;;1.80;;
13228;SDS011;6680;53.220;10.402;2023-07-16T02:50:39;2.23;;;2.00;;
13228;SDS011;6680;53.220;10.402;2023-07-16T02:53:06;1.53;;;1.43;;
13228;SDS011;6680;53.220;10.402;2023-07-16T02:55:35;5.30;;;2.23;;
13228;SDS011;6680;53.220;10.402;2023-07-16T02:58:02;3.10;;;2.20;;
13228;SDS011;6680;53.220;10.402;2023-07-16T03:00:29;2.50;;;2.30;;
13228;SDS011;6680;53.220;10.402;2023-07-16T03:02:56;2.77;;;2.40;;
13228;SDS011;6680;53.220;10.402;2023-07-16T03:05:23;2.00;;;1.90;;
13228;SDS011;6680;53.220;10.402;2023-07-16T03:07:50;2.20;;;2.00;;
13228;SDS011;6680;53.220;10.402;2023-07-16T03:10:17;3.50;;;2.20;;
13228;SDS011;6680;53.220;10.402;2023-07-16T03:12:45;2.50;;;2.30;;
13228;SDS011;6680;53.220;10.402;2023-07-16T03:15:12;3.37;;;1.77;;
13228;SDS011;6680;53.220;10.402;2023-07-16T03:17:38;1.90;;;1.80;;
13228;SDS011;6680;53.220;10.402;2023-07-16T03:20:05;2.03;;;1.83;;
13228;SDS011;6680;53.220;10.402;2023-07-16T03:22:33;2.33;;;2.13;;
13228;SDS011;6680;53.220;10.402;2023-07-16T03:25:00;3.47;;;2.30;;
13228;SDS011;6680;53.220;10.402;2023-07-16T03:27:27;2.27;;;2.03;;
13228;SDS011;6680;53.220;10.402;2023-07-16T03:29:56;2.80;;;2.20;;
13228;SDS011;6680;53.220;10.402;2023-07-16T03:32:23;2.40;;;2.20;;
13228;SDS011;6680;53.220;10.402;2023-07-16T03:34:49;3.73;;;1.73;;
13228;SDS011;6680;53.220;10.402;2023-07-16T03:37:16;3.63;;;2.00;;
13228;SDS011;6680;53.220;10.402;2023-07-16T03:39:43;2.80;;;2.07;;
13228;SDS011;6680;53.220;10.402;2023-07-16T03:42:09;2.70;;;2.10;;
13228;SDS011;6680;53.220;10.402;2023-07-16T03:44:36;2.23;;;2.10;;
13228;SDS011;6680;53.220;10.402;2023-07-16T03:47:04;3.67;;;2.00;;
13228;SDS011;6680;53.220;10.402;2023-07-16T03:49:31;2.27;;;2.03;;
13228;SDS011;6680;53.220;10.402;2023-07-16T03:51:58;2.70;;;2.10;;
13228;SDS011;6680;53.220;10.402;2023-07-16T03:54:24;2.47;;;2.27;;
13228;SDS011;6680;53.220;10.402;2023-07-16T03:56:51;2.97;;;2.00;;
13228;SDS011;6680;53.220;10.402;2023-07-16T03:59:18;2.67;;;2.10;;
13228;SDS011;6680;53.220;10.402;2023-07-16T04:01:44;2.67;;;1.90;;
13228;SDS011;6680;53.220;10.402;2023-07-16T04:04:12;2.20;;;2.00;;
13228;SDS011;6680;53.220;10.402;2023-07-16T04:06:39;2.50;;;2.30;;
13228;SDS011;6680;53.220;10.402;2023-07-16T04:09:05;2.37;;;2.20;;
13228;SDS011;6680;53.220;10.402;2023-07-16T04:11:32;2.40;;;2.10;;
13228;SDS011;6680;53.220;10.402;2023-07-16T04:13:59;3.10;;;1.90;;
13228;SDS011;6680;53.220;10.402;2023-07-16T04:16:25;3.03;;;2.50;;
13228;SDS011;6680;53.220;10.402;2023-07-16T04:18:52;2.27;;;2.00;;
13228;SDS011;6680;53.220;10.402;2023-07-16T04:21:20;2.40;;;2.03;;
13228;SDS011;6680;53.220;10.402;2023-07-16T04:23:47;2.80;;;2.60;;
13228;SDS011;6680;53.220;10.402;2023-07-16T04:26:13;2.30;;;2.10;;
13228;SDS011;6680;53.220;10.402;2023-07-16T04:28:40;3.30;;;2.27;;
13228;SDS011;6680;53.220;10.402;2023-07-16T04:31:07;2.53;;;2.30;;
13228;SDS011;6680;53.220;10.402;2023-07-16T04:33:33;2.30;;;2.20;;
13228;SDS011;6680;53.220;10.402;2023-07-16T04:36:00;3.37;;;2.20;;
13228;SDS011;6680;53.220;10.402;2023-07-16T04:38:28;3.57;;;2.50;;
13228;SDS011;6680;53.220;10.402;2023-07-16T04:40:55;4.23;;;2.07;;
13228;SDS011;6680;53.220;10.402;2023-07-16T04:43:21;3.07;;;1.93;;
13228;SDS011;6680;53.220;10.402;2023-07-16T04:45:48;2.73;;;2.50;;
13228;SDS011;6680;53.220;10.402;2023-07-16T04:48:14;4.90;;;2.43;;
13228;SDS011;6680;53.220;10.402;2023-07-16T04:50:41;2.67;;;2.47;;
13228;SDS011;6680;53.220;10.402;2023-07-16T04:53:08;3.23;;;2.47;;
13228;SDS011;6680;53.220;10.402;2023-07-16T04:55:36;2.40;;;2.20;;
13228;SDS011;6680;53.220;10.402;2023-07-16T04:58:04;2.37;;;2.07;;
13228;SDS011;6680;53.220;10.402;2023-07-16T05:00:31;3.73;;;2.10;;
13228;SDS011;6680;53.220;10.402;2023-07-16T05:02:57;3.90;;;2.30;;
13228;SDS011;6680;53.220;10.402;2023-07-16T05:05:24;2.70;;;2.20;;
13228;SDS011;6680;53.220;10.402;2023-07-16T05:07:51;3.53;;;2.37;;
13228;SDS011;6680;53.220;10.402;2023-07-16T05:10:18;2.80;;;1.70;;
13228;SDS011;6680;53.220;10.402;2023-07-16T05:12:46;3.73;;;2.40;;
13228;SDS011;6680;53.220;10.402;2023-07-16T05:15:12;3.33;;;2.27;;
13228;SDS011;6680;53.220;10.402;2023-07-16T05:17:39;1.83;;;1.73;;
13228;SDS011;6680;53.220;10.402;2023-07-16T05:20:06;2.10;;;1.90;;
13228;SDS011;6680;53.220;10.402;2023-07-16T05:22:35;2.23;;;1.93;;
13228;SDS011;6680;53.220;10.402;2023-07-16T05:25:01;3.43;;;2.43;;
13228;SDS011;6680;53.220;10.402;2023-07-16T05:27:28;3.13;;;2.53;;
13228;SDS011;6680;53.220;10.402;2023-07-16T05:29:56;2.10;;;1.90;;
13228;SDS011;6680;53.220;10.402;2023-07-16T05:32:23;2.10;;;2.00;;
13228;SDS011;6680;53.220;10.402;2023-07-16T05:34:50;3.10;;;1.97;;
13228;SDS011;6680;53.220;10.402;2023-07-16T05:37:16;2.77;;;2.00;;
13228;SDS011;6680;53.220;10.402;2023-07-16T05:39:42;2.77;;;2.53;;
13228;SDS011;6680;53.220;10.402;2023-07-16T05:42:09;3.83;;;2.13;;
13228;SDS011;6680;53.220;10.402;2023-07-16T05:44:35;2.60;;;2.10;;
13228;SDS011;6680;53.220;10.402;2023-07-16T05:47:04;2.07;;;1.87;;
13228;SDS011;6680;53.220;10.402;2023-07-16T05:49:31;2.57;;;2.37;;
13228;SDS011;6680;53.220;10.402;2023-07-16T05:51:58;3.73;;;2.20;;
13228;SDS011;6680;53.220;10.402;2023-07-16T05:54:24;3.13;;;2.20;;
13228;SDS011;6680;53.220;10.402;2023-07-16T05:56:51;4.47;;;2.20;;
13228;SDS011;6680;53.220;10.402;2023-07-16T05:59:18;3.27;;;2.37;;
13228;SDS011;6680;53.220;10.402;2023-07-16T06:01:45;2.87;;;2.13;;
13228;SDS011;6680;53.220;10.402;2023-07-16T06:04:13;3.43;;;2.50;;
13228;SDS011;6680;53.220;10.402;2023-07-16T06:06:39;2.27;;;2.07;;
13228;SDS011;6680;53.220;10.402;2023-07-16T06:09:06;3.47;;;2.13;;
13228;SDS011;6680;53.220;10.402;2023-07-16T06:11:33;2.27;;;2.03;;
13228;SDS011;6680;53.220;10.402;2023-07-16T06:13:59;2.50;;;2.30;;
13228;SDS011;6680;53.220;10.402;2023-07-16T06:16:26;2.33;;;2.13;;
13228;SDS011;6680;53.220;10.402;2023-07-16T06:18:53;2.00;;;1.90;;
13228;SDS011;6680;53.220;10.402;2023-07-16T06:21:21;2.93;;;2.07;;
13228;SDS011;6680;53.220;10.402;2023-07-16T06:23:47;3.73;;;2.53;;
13228;SDS011;6680;53.220;10.402;2023-07-16T06:26:14;3.73;;;2.33;;
13228;SDS011;6680;53.220;10.402;2023-07-16T06:28:41;3.67;;;2.10;;
13228;SDS011;6680;53.220;10.402;2023-07-16T06:31:08;2.20;;;2.00;;
13228;SDS011;6680;53.220;10.402;2023-07-16T06:33:34;3.67;;;2.00;;
13228;SDS011;6680;53.220;10.402;2023-07-16T06:36:01;3.53;;;2.30;;
13228;SDS011;6680;53.220;10.402;2023-07-16T06:38:29;4.13;;;2.20;;
13228;SDS011;6680;53.220;10.402;2023-07-16T06:40:56;2.60;;;2.00;;
13228;SDS011;6680;53.220;10.402;2023-07-16T06:43:23;2.33;;;2.13;;
13228;SDS011;6680;53.220;10.402;2023-07-16T06:45:49;3.33;;;2.50;;
13228;SDS011;6680;53.220;10.402;2023-07-16T06:48:16;4.60;;;2.70;;
13228;SDS011;6680;53.220;10.402;2023-07-16T06:50:43;3.70;;;2.30;;
13228;SDS011;6680;53.220;10.402;2023-07-16T06:53:10;2.43;;;2.13;;
13228;SDS011;6680;53.220;10.402;2023-07-16T06:55:38;2.40;;;2.20;;
13228;SDS011;6680;53.220;10.402;2023-07-16T06:58:04;4.90;;;2.30;;
13228;SDS011;6680;53.220;10.402;2023-07-16T07:00:31;3.23;;;2.57;;
13228;SDS011;6680;53.220;10.402;2023-07-16T07:02:58;3.60;;;2.30;;
13228;SDS011;6680;53.220;10.402;2023-07-16T07:05:25;3.03;;;2.20;;
13228;SDS011;6680;53.220;10.402;2023-07-16T07:07:51;3.97;;;2.37;;
13228;SDS011;6680;53.220;10.402;2023-07-16T07:10:18;3.37;;;2.30;;
13228;SDS011;6680;53.220;10.402;2023-07-16T07:12:46;4.90;;;2.60;;
13228;SDS011;6680;53.220;10.402;2023-07-16T07:15:13;4.80;;;2.70;;
13228;SDS011;6680;53.220;10.402;2023-07-16T07:17:40;2.93;;;1.87;;
13228;SDS011;6680;53.220;10.402;2023-07-16T07:20:08;3.20;;;2.50;;
13228;SDS011;6680;53.220;10.402;2023-07-16T07:22:35;5.37;;;2.30;;
13228;SDS011;6680;53.220;10.402;2023-07-16T07:25:02;2.27;;;2.07;;
13228;SDS011;6680;53.220;10.402;2023-07-16T07:27:29;3.03;;;2.30;;
13228;SDS011;6680;53.220;10.402;2023-07-16T07:29:57;2.20;;;2.00;;
13228;SDS011;6680;53.220;10.402;2023-07-16T07:32:24;3.17;;;2.30;;
13228;SDS011;6680;53.220;10.402;2023-07-16T07:34:51;6.17;;;2.40;;
13228;SDS011;6680;53.220;10.402;2023-07-16T07:37:17;3.37;;;2.07;;
13228;SDS011;6680;53.220;10.402;2023-07-16T07:39:44;2.67;;;2.13;;
13228;SDS011;6680;53.220;10.402;2023-07-16T07:42:12;2.90;;;2.20;;
13228;SDS011;6680;53.220;10.402;2023-07-16T07:44:39;5.10;;;2.60;;
13228;SDS011;6680;53.220;10.402;2023-07-16T07:47:07;4.23;;;2.47;;
13228;SDS011;6680;53.220;10.402;2023-07-16T07:49:34;2.67;;;2.47;;
13228;SDS011;6680;53.220;10.402;2023-07-16T07:52:01;4.10;;;2.60;;
13228;SDS011;6680;53.220;10.402;2023-07-16T07:54:27;4.47;;;3.00;;
13228;SDS011;6680;53.220;10.402;2023-07-16T07:56:54;3.37;;;2.10;;
13228;SDS011;6680;53.220;10.402;2023-07-16T07:59:21;3.93;;;2.27;;
13228;SDS011;6680;53.220;10.402;2023-07-16T08:01:47;2.83;;;2.50;;
13228;SDS011;6680;53.220;10.402;2023-07-16T08:04:15;3.77;;;2.13;;
13228;SDS011;6680;53.220;10.402;2023-07-16T08:06:42;4.20;;;2.20;;
13228;SDS011;6680;53.220;10.402;2023-07-16T08:09:09;2.40;;;2.17;;
13228;SDS011;6680;53.220;10.402;2023-07-16T08:11:36;2.30;;;2.10;;
13228;SDS011;6680;53.220;10.402;2023-07-16T08:14:03;2.83;;;2.43;;
13228;SDS011;6680;53.220;10.402;2023-07-16T08:16:29;3.20;;;2.27;;
13228;SDS011;6680;53.220;10.402;2023-07-16T08:18:56;4.53;;;2.60;;
13228;SDS011;6680;53.220;10.402;2023-07-16T08:21:24;3.53;;;2.30;;
13228;SDS011;6680;53.220;10.402;2023-07-16T08:23:51;2.50;;;2.27;;
13228;SDS011;6680;53.220;10.402;2023-07-16T08:26:18;3.10;;;2.30;;
13228;SDS011;6680;53.220;10.402;2023-07-16T08:28:45;2.67;;;2.47;;
13228;SDS011;6680;53.220;10.402;2023-07-16T08:31:11;5.13;;;2.80;;
13228;SDS011;6680;53.220;10.402;2023-07-16T08:33:38;4.40;;;2.30;;
13228;SDS011;6680;53.220;10.402;2023-07-16T08:36:05;2.83;;;2.37;;
13228;SDS011;6680;53.220;10.402;2023-07-16T08:38:33;2.80;;;2.43;;
13228;SDS011;6680;53.220;10.402;2023-07-16T08:41:00;3.03;;;2.73;;
13228;SDS011;6680;53.220;10.402;2023-07-16T08:43:27;5.37;;;2.60;;
13228;SDS011;6680;53.220;10.402;2023-07-16T08:45:55;6.37;;;3.20;;
13228;SDS011;6680;53.220;10.402;2023-07-16T08:48:22;3.60;;;2.60;;
13228;SDS011;6680;53.220;10.402;2023-07-16T08:50:49;4.60;;;2.90;;
13228;SDS011;6680;53.220;10.402;2023-07-16T08:53:16;2.90;;;2.60;;
13228;SDS011;6680;53.220;10.402;2023-07-16T08:55:45;3.67;;;2.43;;
13228;SDS011;6680;53.220;10.402;2023-07-16T08:58:13;5.33;;;2.73;;
13228;SDS011;6680;53.220;10.402;2023-07-16T09:00:40;5.07;;;3.73;;
13228;SDS011;6680;53.220;10.402;2023-07-16T09:03:08;3.70;;;2.57;;
13228;SDS011;6680;53.220;10.402;2023-07-16T09:05:37;3.97;;;2.40;;
13228;SDS011;6680;53.220;10.402;2023-07-16T09:08:05;5.80;;;2.10;;
13228;SDS011;6680;53.220;10.402;2023-07-16T09:10:32;5.63;;;2.60;;
13228;SDS011;6680;53.220;10.402;2023-07-16T09:13:00;3.90;;;2.23;;
13228;SDS011;6680;53.220;10.402;2023-07-16T09:15:28;4.60;;;2.47;;
13228;SDS011;6680;53.220;10.402;2023-07-16T09:17:55;2.87;;;2.63;;
13228;SDS011;6680;53.220;10.402;2023-07-16T09:20:22;3.90;;;2.57;;
13228;SDS011;6680;53.220;10.402;2023-07-16T09:22:49;2.83;;;2.30;;
13228;SDS011;6680;53.220;10.402;2023-07-16T09:25:19;3.13;;;2.70;;
13228;SDS011;6680;53.220;10.402;2023-07-16T09:27:48;3.50;;;2.67;;
13228;SDS011;6680;53.220;10.402;2023-07-16T09:30:16;4.30;;;3.03;;
13228;SDS011;6680;53.220;10.402;2023-07-16T09:32:42;3.93;;;2.60;;
13228;SDS011;6680;53.220;10.402;2023-07-16T09:35:10;5.80;;;3.00;;
13228;SDS011;6680;53.220;10.402;2023-07-16T09:37:37;3.83;;;2.57;;
13228;SDS011;6680;53.220;10.402;2023-07-16T09:40:05;5.60;;;2.80;;
13228;SDS011;6680;53.220;10.402;2023-07-16T09:42:35;2.83;;;2.37;;
13228;SDS011;6680;53.220;10.402;2023-07-16T09:45:05;5.57;;;3.27;;
13228;SDS011;6680;53.220;10.402;2023-07-16T09:47:34;5.57;;;2.87;;
13228;SDS011;6680;53.220;10.402;2023-07-16T09:50:01;5.77;;;3.30;;
13228;SDS011;6680;53.220;10.402;2023-07-16T09:52:29;3.37;;;2.63;;
13228;SDS011;6680;53.220;10.402;2023-07-16T09:54:57;3.30;;;3.00;;
13228;SDS011;6680;53.220;10.402;2023-07-16T09:57:26;3.07;;;2.67;;
13228;SDS011;6680;53.220;10.402;2023-07-16T09:59:58;5.03;;;3.00;;
13228;SDS011;6680;53.220;10.402;2023-07-16T10:02:30;3.43;;;2.70;;
13228;SDS011;6680;53.220;10.402;2023-07-16T10:04:59;4.90;;;3.40;;
13228;SDS011;6680;53.220;10.402;2023-07-16T10:07:36;2.70;;;2.50;;
13228;SDS011;6680;53.220;10.402;2023-07-16T10:10:07;4.43;;;3.27;;
13228;SDS011;6680;53.220;10.402;2023-07-16T10:12:35;6.23;;;3.13;;
13228;SDS011;6680;53.220;10.402;2023-07-16T10:15:04;4.63;;;3.27;;
13228;SDS011;6680;53.220;10.402;2023-07-16T10:17:32;4.00;;;3.17;;
13228;SDS011;6680;53.220;10.402;2023-07-16T10:20:01;4.90;;;3.13;;
13228;SDS011;6680;53.220;10.402;2023-07-16T10:22:33;4.00;;;3.37;;
13228;SDS011;6680;53.220;10.402;2023-07-16T10:25:02;8.53;;;3.13;;
13228;SDS011;6680;53.220;10.402;2023-07-16T10:27:29;2.73;;;2.50;;
13228;SDS011;6680;53.220;10.402;2023-07-16T10:29:58;3.10;;;2.80;;
13228;SDS011;6680;53.220;10.402;2023-07-16T10:32:27;6.67;;;2.77;;
13228;SDS011;6680;53.220;10.402;2023-07-16T10:34:56;4.80;;;3.30;;
13228;SDS011;6680;53.220;10.402;2023-07-16T10:37:24;5.83;;;3.10;;
13228;SDS011;6680;53.220;10.402;2023-07-16T10:39:52;6.50;;;3.47;;
13228;SDS011;6680;53.220;10.402;2023-07-16T10:42:20;4.17;;;3.80;;
13228;SDS011;6680;53.220;10.402;2023-07-16T10:44:48;4.20;;;3.37;;
13228;SDS011;6680;53.220;10.402;2023-07-16T10:47:20;4.97;;;3.07;;
13228;SDS011;6680;53.220;10.402;2023-07-16T10:49:48;7.87;;;3.33;;
13228;SDS011;6680;53.220;10.402;2023-07-16T10:52:17;5.33;;;3.33;;
13228;SDS011;6680;53.220;10.402;2023-07-16T10:54:45;3.30;;;3.00;;
13228;SDS011;6680;53.220;10.402;2023-07-16T10:57:12;4.20;;;3.20;;
13228;SDS011;6680;53.220;10.402;2023-07-16T10:59:41;4.47;;;3.63;;
13228;SDS011;6680;53.220;10.402;2023-07-16T11:02:10;3.40;;;2.93;;
13228;SDS011;6680;53.220;10.402;2023-07-16T11:04:38;3.37;;;3.07;;
13228;SDS011;6680;53.220;10.402;2023-07-16T11:07:05;4.97;;;3.13;;
13228;SDS011;6680;53.220;10.402;2023-07-16T11:09:33;5.10;;;3.23;;
13228;SDS011;6680;53.220;10.402;2023-07-16T11:12:08;4.73;;;2.97;;
13228;SDS011;6680;53.220;10.402;2023-07-16T11:14:36;3.60;;;3.17;;
13228;SDS011;6680;53.220;10.402;2023-07-16T11:17:04;4.37;;;3.30;;
13228;SDS011;6680;53.220;10.402;2023-07-16T11:19:32;6.33;;;3.20;;
13228;SDS011;6680;53.220;10.402;2023-07-16T11:21:59;4.20;;;3.77;;
13228;SDS011;6680;53.220;10.402;2023-07-16T11:24:26;3.73;;;3.03;;
13228;SDS011;6680;53.220;10.402;2023-07-16T11:26:53;4.20;;;3.57;;
13228;SDS011;6680;53.220;10.402;2023-07-16T11:29:23;3.80;;;3.00;;
13228;SDS011;6680;53.220;10.402;2023-07-16T11:31:50;3.80;;;2.93;;
13228;SDS011;6680;53.220;10.402;2023-07-16T11:34:19;3.90;;;3.10;;
13228;SDS011;6680;53.220;10.402;2023-07-16T11:36:46;4.87;;;2.63;;
13228;SDS011;6680;53.220;10.402;2023-07-16T11:39:13;3.73;;;2.97;;
13228;SDS011;6680;53.220;10.402;2023-07-16T11:41:40;4.17;;;2.80;;
13228;SDS011;6680;53.220;10.402;2023-07-16T11:44:06;4.17;;;2.77;;
13228;SDS011;6680;53.220;10.402;2023-07-16T11:46:35;3.10;;;2.33;;
13228;SDS011;6680;53.220;10.402;2023-07-16T11:49:02;4.43;;;2.83;;
13228;SDS011;6680;53.220;10.402;2023-07-16T11:51:29;3.93;;;2.80;;
13228;SDS011;6680;53.220;10.402;2023-07-16T11:53:56;4.13;;;2.53;;
13228;SDS011;6680;53.220;10.402;2023-07-16T11:56:23;5.10;;;3.13;;
13228;SDS011;6680;53.220;10.402;2023-07-16T11:58:50;4.83;;;2.97;;
13228;SDS011;6680;53.220;10.402;2023-07-16T12:01:16;3.67;;;2.77;;
13228;SDS011;6680;53.220;10.402;2023-07-16T12:03:44;3.63;;;2.93;;
13228;SDS011;6680;53.220;10.402;2023-07-16T12:06:11;5.97;;;2.43;;
13228;SDS011;6680;53.220;10.402;2023-07-16T12:08:38;3.63;;;3.10;;
13228;SDS011;6680;53.220;10.402;2023-07-16T12:11:04;2.90;;;2.50;;
13228;SDS011;6680;53.220;10.402;2023-07-16T12:13:31;8.27;;;2.63;;
13228;SDS011;6680;53.220;10.402;2023-07-16T12:15:58;2.77;;;2.57;;
13228;SDS011;6680;53.220;10.402;2023-07-16T12:18:24;5.23;;;3.23;;
13228;SDS011;6680;53.220;10.402;2023-07-16T12:20:53;4.13;;;3.03;;
13228;SDS011;6680;53.220;10.402;2023-07-16T12:23:20;4.13;;;3.17;;
13228;SDS011;6680;53.220;10.402;2023-07-16T12:25:46;4.03;;;3.03;;
13228;SDS011;6680;53.220;10.402;2023-07-16T12:28:14;2.60;;;2.40;;
13228;SDS011;6680;53.220;10.402;2023-07-16T12:30:41;3.37;;;2.90;;
13228;SDS011;6680;53.220;10.402;2023-07-16T12:33:08;4.13;;;2.90;;
13228;SDS011;6680;53.220;10.402;2023-07-16T12:35:34;5.27;;;2.73;;
13228;SDS011;6680;53.220;10.402;2023-07-16T12:38:02;4.37;;;2.93;;
13228;SDS011;6680;53.220;10.402;2023-07-16T12:40:29;4.17;;;2.77;;
13228;SDS011;6680;53.220;10.402;2023-07-16T12:42:56;6.73;;;2.50;;
13228;SDS011;6680;53.220;10.402;2023-07-16T12:45:23;4.67;;;2.50;;
13228;SDS011;6680;53.220;10.402;2023-07-16T12:47:52;3.47;;;2.50;;
13228;SDS011;6680;53.220;10.402;2023-07-16T12:50:19;4.73;;;3.00;;
13228;SDS011;6680;53.220;10.402;2023-07-16T12:52:46;3.60;;;2.67;;
13228;SDS011;6680;53.220;10.402;2023-07-16T12:55:14;2.90;;;2.37;;
13228;SDS011;6680;53.220;10.402;2023-07-16T12:57:40;4.17;;;2.70;;
13228;SDS011;6680;53.220;10.402;2023-07-16T13:00:07;3.63;;;2.87;;
13228;SDS011;6680;53.220;10.402;2023-07-16T13:02:35;3.27;;;2.97;;
13228;SDS011;6680;53.220;10.402;2023-07-16T13:05:03;4.33;;;2.60;;
13228;SDS011;6680;53.220;10.402;2023-07-16T13:07:30;2.60;;;2.40;;
13228;SDS011;6680;53.220;10.402;2023-07-16T13:09:57;3.93;;;2.77;;
13228;SDS011;6680;53.220;10.402;2023-07-16T13:12:25;4.60;;;2.57;;
13228;SDS011;6680;53.220;10.402;2023-07-16T13:14:51;3.00;;;2.30;;
13228;SDS011;6680;53.220;10.402;2023-07-16T13:17:18;3.00;;;2.37;;
13228;SDS011;6680;53.220;10.402;2023-07-16T13:19:45;5.30;;;2.53;;
13228;SDS011;6680;53.220;10.402;2023-07-16T13:22:12;3.77;;;2.90;;
13228;SDS011;6680;53.220;10.402;2023-07-16T13:24:40;5.87;;;2.83;;
13228;SDS011;6680;53.220;10.402;2023-07-16T13:27:09;5.23;;;2.80;;
13228;SDS011;6680;53.220;10.402;2023-07-16T13:29:46;4.03;;;2.20;;
13228;SDS011;6680;53.220;10.402;2023-07-16T13:32:13;4.67;;;2.60;;
13228;SDS011;6680;53.220;10.402;2023-07-16T13:34:40;4.23;;;2.67;;
13228;SDS011;6680;53.220;10.402;2023-07-16T13:37:07;3.80;;;2.53;;
13228;SDS011;6680;53.220;10.402;2023-07-16T13:39:34;5.67;;;2.77;;
13228;SDS011;6680;53.220;10.402;2023-07-16T13:42:01;3.27;;;1.93;;
13228;SDS011;6680;53.220;10.402;2023-07-16T13:44:28;3.27;;;2.93;;
13228;SDS011;6680;53.220;10.402;2023-07-16T13:46:56;2.90;;;2.60;;
13228;SDS011;6680;53.220;10.402;2023-07-16T13:49:23;4.30;;;3.10;;
13228;SDS011;6680;53.220;10.402;2023-07-16T13:51:49;4.77;;;2.53;;
13228;SDS011;6680;53.220;10.402;2023-07-16T13:54:16;6.03;;;2.93;;
13228;SDS011;6680;53.220;10.402;2023-07-16T13:56:43;5.50;;;2.70;;
13228;SDS011;6680;53.220;10.402;2023-07-16T13:59:09;4.00;;;2.20;;
13228;SDS011;6680;53.220;10.402;2023-07-16T14:01:37;4.33;;;2.93;;
13228;SDS011;6680;53.220;10.402;2023-07-16T14:04:06;2.77;;;2.57;;
13228;SDS011;6680;53.220;10.402;2023-07-16T14:06:33;4.70;;;2.30;;
13228;SDS011;6680;53.220;10.402;2023-07-16T14:09:00;3.37;;;2.83;;
13228;SDS011;6680;53.220;10.402;2023-07-16T14:11:29;4.27;;;2.97;;
13228;SDS011;6680;53.220;10.402;2023-07-16T14:13:56;6.00;;;2.93;;
13228;SDS011;6680;53.220;10.402;2023-07-16T14:16:23;4.43;;;2.60;;
13228;SDS011;6680;53.220;10.402;2023-07-16T14:18:50;4.57;;;3.20;;
13228;SDS011;6680;53.220;10.402;2023-07-16T14:21:20;3.13;;;2.83;;
13228;SDS011;6680;53.220;10.402;2023-07-16T14:23:47;3.43;;;2.90;;
13228;SDS011;6680;53.220;10.402;2023-07-16T14:26:14;4.33;;;2.67;;
13228;SDS011;6680;53.220;10.402;2023-07-16T14:28:40;5.50;;;3.17;;
13228;SDS011;6680;53.220;10.402;2023-07-16T14:31:07;3.20;;;2.90;;
13228;SDS011;6680;53.220;10.402;2023-07-16T14:33:34;4.00;;;2.67;;
13228;SDS011;6680;53.220;10.402;2023-07-16T14:36:00;3.77;;;3.07;;
13228;SDS011;6680;53.220;10.402;2023-07-16T14:38:29;2.80;;;2.57;;
13228;SDS011;6680;53.220;10.402;2023-07-16T14:40:56;3.60;;;3.27;;
13228;SDS011;6680;53.220;10.402;2023-07-16T14:43:22;7.60;;;3.23;;
13228;SDS011;6680;53.220;10.402;2023-07-16T14:45:49;3.03;;;2.40;;
13228;SDS011;6680;53.220;10.402;2023-07-16T14:48:16;2.80;;;2.50;;